createdAt,value
2017-05-02T00:01:45.737Z,49.44
2017-05-02T00:04:15.639Z,48.30
2017-05-02T00:06:51.045Z,46.62
2017-05-02T00:09:19.494Z,46.84
2017-05-02T00:11:48.642Z,48.26
2017-05-02T00:17:11.849Z,47.32
2017-05-02T00:19:47.972Z,46.12
2017-05-02T00:22:16.456Z,45.38
2017-05-02T00:24:55.870Z,42.18
2017-05-02T00:27:44.348Z,44.58
2017-05-02T00:30:16.095Z,43.10
2017-05-02T00:32:51.582Z,42.00
2017-05-02T00:35:20.837Z,40.86
2017-05-02T00:37:52.680Z,42.54
2017-05-02T00:40:22.506Z,42.30
2017-05-02T00:42:51.709Z,41.38
2017-05-02T00:45:21.818Z,40.84
2017-05-02T00:47:53.589Z,42.32
2017-05-02T00:50:22.090Z,41.32
2017-05-02T00:52:52.076Z,41.16
2017-05-02T00:58:21.121Z,38.26
2017-05-02T01:00:51.005Z,37.58
2017-05-02T01:03:22.489Z,36.48
2017-05-02T01:06:01.765Z,36.26
2017-05-02T01:08:31.677Z,34.14
2017-05-02T01:16:47.664Z,35.86
2017-05-02T01:19:26.843Z,35.44
2017-05-02T01:24:58.684Z,34.58
2017-05-02T01:27:46.663Z,34.48
2017-05-02T01:33:09.984Z,34.34
2017-05-02T01:35:45.285Z,33.36
2017-05-02T01:41:11.004Z,32.50
2017-05-02T01:43:39.382Z,30.92
2017-05-02T01:46:07.890Z,32.30
2017-05-02T01:48:36.528Z,32.20
2017-05-02T01:53:59.896Z,29.94
2017-05-02T01:56:31.298Z,32.38
2017-05-02T01:59:03.197Z,30.80
2017-05-02T02:01:33.032Z,29.56
2017-05-02T02:04:03.245Z,28.18
2017-05-02T02:06:47.286Z,28.52
2017-05-02T02:09:15.897Z,28.68
2017-05-02T02:11:44.347Z,29.62
2017-05-02T02:14:13.043Z,29.86
2017-05-02T02:16:41.507Z,28.98
2017-05-02T02:19:12.795Z,26.82
2017-05-02T02:21:47.054Z,27.56
2017-05-02T02:24:16.212Z,26.64
2017-05-02T02:26:53.377Z,27.48
2017-05-02T02:29:34.451Z,27.48
2017-05-02T02:32:05.982Z,25.40
2017-05-02T02:34:47.154Z,23.76
2017-05-02T02:37:18.225Z,26.48
2017-05-02T02:39:47.545Z,26.12
2017-05-02T02:42:16.000Z,23.62
2017-05-02T02:44:44.519Z,23.36
2017-05-02T02:47:12.890Z,24.12
2017-05-02T02:49:44.192Z,24.00
2017-05-02T02:52:12.832Z,22.70
2017-05-02T02:54:48.208Z,25.20
2017-05-02T02:57:17.542Z,22.54
2017-05-02T02:59:45.951Z,21.82
2017-05-02T03:05:08.237Z,20.14
2017-05-02T03:07:38.467Z,20.48
2017-05-02T03:10:09.718Z,20.28
2017-05-02T03:12:38.933Z,21.42
2017-05-02T03:15:11.008Z,20.50
2017-05-02T03:17:40.223Z,21.66
2017-05-02T03:20:15.507Z,20.20
2017-05-02T03:22:45.522Z,19.66
2017-05-02T03:25:14.214Z,21.12
2017-05-02T03:27:52.657Z,20.16
2017-05-02T03:30:44.577Z,20.68
2017-05-02T03:33:13.801Z,19.98
2017-05-02T03:35:42.323Z,19.44
2017-05-02T03:38:18.496Z,18.98
2017-05-02T03:40:47.879Z,19.02
2017-05-02T03:43:17.161Z,19.90
2017-05-02T03:45:45.530Z,17.04
2017-05-02T03:48:14.789Z,19.80
2017-05-02T03:50:44.035Z,17.40
2017-05-02T03:53:12.532Z,19.88
2017-05-02T03:55:43.056Z,19.02
2017-05-02T04:01:15.506Z,17.08
2017-05-02T04:03:45.645Z,17.60
2017-05-02T04:06:14.074Z,17.38
2017-05-02T04:08:45.394Z,16.26
2017-05-02T04:11:15.369Z,17.26
2017-05-02T04:13:47.601Z,17.26
2017-05-02T04:16:16.008Z,18.12
2017-05-02T04:18:44.708Z,17.46
2017-05-02T04:21:13.928Z,16.54
2017-05-02T04:23:42.343Z,15.46
2017-05-02T04:29:06.833Z,15.82
2017-05-02T04:31:36.933Z,15.86
2017-05-02T04:34:06.153Z,17.50
2017-05-02T04:36:35.600Z,15.18
2017-05-02T04:39:04.863Z,16.14
2017-05-02T04:41:36.090Z,16.16
2017-05-02T04:44:06.123Z,14.72
2017-05-02T04:46:34.493Z,13.52
2017-05-02T04:49:03.745Z,17.54
2017-05-02T04:51:32.174Z,14.56
2017-05-02T04:57:00.873Z,14.48
2017-05-02T04:59:33.731Z,15.00
2017-05-02T05:02:05.196Z,15.44
2017-05-02T05:04:35.107Z,15.54
2017-05-02T05:07:20.366Z,23.92
2017-05-02T05:09:55.570Z,20.34
2017-05-02T05:12:25.869Z,22.28
2017-05-02T05:14:55.621Z,16.82
2017-05-02T05:17:27.010Z,17.38
2017-05-02T05:19:56.995Z,15.50
2017-05-02T05:22:26.172Z,15.56
2017-05-02T05:24:56.518Z,16.80
2017-05-02T05:27:28.408Z,13.86
2017-05-02T05:29:59.215Z,14.84
2017-05-02T05:32:30.379Z,17.96
2017-05-02T05:35:03.434Z,14.32
2017-05-02T05:37:45.168Z,13.68
2017-05-02T05:40:15.253Z,13.12
2017-05-02T05:42:44.500Z,13.92
2017-05-02T05:45:19.884Z,14.96
2017-05-02T05:47:49.262Z,14.20
2017-05-02T05:50:17.712Z,13.46
2017-05-02T05:52:46.849Z,13.34
2017-05-02T05:55:15.402Z,16.08
2017-05-02T05:57:46.745Z,13.44
2017-05-02T06:00:16.731Z,14.18
2017-05-02T06:02:45.284Z,12.18
2017-05-02T06:08:09.266Z,14.16
2017-05-02T06:10:37.670Z,13.80
2017-05-02T06:13:09.106Z,11.36
2017-05-02T06:15:37.528Z,14.02
2017-05-02T06:18:07.993Z,13.22
2017-05-02T06:20:46.826Z,14.36
2017-05-02T06:23:15.224Z,12.26
2017-05-02T06:25:43.902Z,12.10
2017-05-02T06:28:12.504Z,13.14
2017-05-02T06:30:53.952Z,13.00
2017-05-02T06:33:32.593Z,11.94
2017-05-02T06:36:07.831Z,12.68
2017-05-02T06:38:37.136Z,12.38
2017-05-02T06:41:05.524Z,12.90
2017-05-02T06:43:34.640Z,12.14
2017-05-02T06:49:01.586Z,11.58
2017-05-02T06:51:30.816Z,11.82
2017-05-02T06:53:59.952Z,11.66
2017-05-02T06:56:29.077Z,11.70
2017-05-02T06:58:57.441Z,14.14
2017-05-02T07:01:26.609Z,15.22
2017-05-02T07:03:58.924Z,14.14
2017-05-02T07:06:46.484Z,11.94
2017-05-02T07:09:16.309Z,13.84
2017-05-02T07:11:45.388Z,11.50
2017-05-02T07:14:14.480Z,12.24
2017-05-02T07:16:47.080Z,12.96
2017-05-02T07:19:15.792Z,12.56
2017-05-02T07:21:44.161Z,12.08
2017-05-02T07:24:13.891Z,11.68
2017-05-02T07:26:42.362Z,11.70
2017-05-02T07:29:10.949Z,11.82
2017-05-02T07:31:39.427Z,11.22
2017-05-02T07:34:08.922Z,11.32
2017-05-02T07:36:38.053Z,10.98
2017-05-02T07:42:03.593Z,13.18
2017-05-02T07:44:45.689Z,10.06
2017-05-02T07:47:15.687Z,9.72
2017-05-02T07:49:44.254Z,10.74
2017-05-02T07:52:12.772Z,11.16
2017-05-02T08:03:25.888Z,10.90
2017-05-02T08:05:54.982Z,11.32
2017-05-02T08:08:46.452Z,11.06
2017-05-02T08:17:04.121Z,11.48
2017-05-02T08:19:34.098Z,11.62
2017-05-02T08:24:56.403Z,10.44
2017-05-02T08:27:44.996Z,10.10
2017-05-02T08:33:28.365Z,10.50
2017-05-02T08:38:51.777Z,30.06
2017-05-02T08:47:10.569Z,53.24
2017-05-02T08:49:45.974Z,59.98
2017-05-02T08:55:16.604Z,64.46
2017-05-02T09:00:34.373Z,73.08
2017-05-02T09:05:57.660Z,79.00
2017-05-02T09:08:46.233Z,78.32
2017-05-02T09:14:10.018Z,83.90
2017-05-02T09:16:39.228Z,82.48
2017-05-02T09:19:08.436Z,84.68
2017-05-02T09:21:37.488Z,82.20
2017-05-02T09:24:13.702Z,83.80
2017-05-02T09:26:49.079Z,86.66
2017-05-02T09:29:17.497Z,90.30
2017-05-02T09:31:46.759Z,86.36
2017-05-02T09:34:16.212Z,93.50
2017-05-02T09:36:46.173Z,83.96
2017-05-02T09:39:14.549Z,81.38
2017-05-02T09:41:46.608Z,83.20
2017-05-02T09:47:13.117Z,89.00
2017-05-02T09:49:50.963Z,90.68
2017-05-02T09:58:18.001Z,79.88
2017-05-02T10:00:47.089Z,74.82
2017-05-02T10:03:16.197Z,92.42
2017-05-02T10:05:44.733Z,82.56
2017-05-02T10:08:13.157Z,88.42
2017-05-02T10:10:46.656Z,77.22
2017-05-02T10:13:15.833Z,77.06
2017-05-02T10:15:46.993Z,77.18
2017-05-02T10:21:10.595Z,74.56
2017-05-02T10:23:39.042Z,73.28
2017-05-02T10:26:08.897Z,72.96
2017-05-02T10:28:45.055Z,71.40
2017-05-02T10:31:14.628Z,71.68
2017-05-02T10:33:43.872Z,70.86
2017-05-02T10:47:49.009Z,60.40
2017-05-02T10:53:12.276Z,58.18
2017-05-02T10:58:47.307Z,67.90
2017-05-02T11:01:15.685Z,53.86
2017-05-02T11:03:45.849Z,57.06
2017-05-02T11:09:31.471Z,52.03
2017-05-02T11:14:47.916Z,49.28
2017-05-02T11:17:16.440Z,49.86
2017-05-02T11:19:50.938Z,48.74
2017-05-02T11:25:13.841Z,46.14
2017-05-02T11:27:42.965Z,47.62
2017-05-02T11:33:04.859Z,49.52
2017-05-02T11:35:46.083Z,46.24
2017-05-02T11:41:08.490Z,42.88
2017-05-02T11:43:38.535Z,43.94
2017-05-02T11:46:09.395Z,39.34
2017-05-02T11:48:38.040Z,41.58
2017-05-02T11:51:06.553Z,42.38
2017-05-02T11:53:46.135Z,42.16
2017-05-02T11:56:17.268Z,38.64
2017-05-02T11:58:45.708Z,39.54
2017-05-02T12:01:15.752Z,36.18
2017-05-02T12:03:44.288Z,34.76
2017-05-02T12:06:13.595Z,44.12
2017-05-02T12:08:42.718Z,34.02
2017-05-02T12:11:11.996Z,37.60
2017-05-02T12:13:41.110Z,37.28
2017-05-02T12:16:10.197Z,33.92
2017-05-02T12:18:39.629Z,36.20
2017-05-02T12:21:08.127Z,34.86
2017-05-02T12:23:47.220Z,31.08
2017-05-02T12:26:15.602Z,32.86
2017-05-02T12:28:54.398Z,34.66
2017-05-02T12:31:23.528Z,37.28
2017-05-02T12:33:52.915Z,46.92
2017-05-02T12:36:22.091Z,32.66
2017-05-02T12:38:52.063Z,39.82
2017-05-02T12:41:20.428Z,31.94
2017-05-02T12:43:49.906Z,34.16
2017-05-02T12:46:19.871Z,37.30
2017-05-02T12:48:48.579Z,29.26
2017-05-02T12:51:17.877Z,32.00
2017-05-02T12:53:53.393Z,29.72
2017-05-02T12:56:22.731Z,34.50
2017-05-02T12:58:53.840Z,30.66
2017-05-02T13:01:29.294Z,31.38
2017-05-02T13:03:58.429Z,33.14
2017-05-02T13:06:26.951Z,30.20
2017-05-02T13:09:02.223Z,33.06
2017-05-02T13:11:33.440Z,31.74
2017-05-02T13:14:05.389Z,29.30
2017-05-02T13:16:34.021Z,29.90
2017-05-02T13:21:56.863Z,29.30
2017-05-02T13:24:25.445Z,31.78
2017-05-02T13:26:54.621Z,28.50
2017-05-02T13:29:23.001Z,26.46
2017-05-02T13:34:45.048Z,27.04
2017-05-02T13:37:13.541Z,25.88
2017-05-02T13:39:42.104Z,27.44
2017-05-02T13:42:11.368Z,25.78
2017-05-02T13:44:47.267Z,25.52
2017-05-02T13:47:15.824Z,23.84
2017-05-02T13:49:44.991Z,23.68
2017-05-02T13:52:19.739Z,24.74
2017-05-02T13:54:54.974Z,24.44
2017-05-02T13:57:23.544Z,24.24
2017-05-02T14:02:46.061Z,23.60
2017-05-02T14:05:21.395Z,23.62
2017-05-02T14:07:49.824Z,23.34
2017-05-02T14:10:20.749Z,24.98
2017-05-02T14:12:49.190Z,22.76
2017-05-02T14:15:17.570Z,21.84
2017-05-02T14:17:46.662Z,21.72
2017-05-02T14:20:15.930Z,23.58
2017-05-02T14:22:44.565Z,20.50
2017-05-02T14:25:13.699Z,20.84
2017-05-02T14:27:51.953Z,24.14
2017-05-02T14:30:20.504Z,21.00
2017-05-02T14:32:49.812Z,22.72
2017-05-02T14:35:21.193Z,21.94
2017-05-02T14:37:49.610Z,19.08
2017-05-02T14:43:16.811Z,20.00
2017-05-02T14:45:46.961Z,20.68
2017-05-02T14:48:16.300Z,20.22
2017-05-02T14:53:45.844Z,19.42
2017-05-02T14:56:15.032Z,21.16
2017-05-02T14:58:52.990Z,20.30
2017-05-02T15:01:21.362Z,20.40
2017-05-02T15:03:50.588Z,19.54
2017-05-02T15:12:09.103Z,20.70
2017-05-02T15:14:41.245Z,19.12
2017-05-02T15:17:11.370Z,18.10
2017-05-02T15:19:40.485Z,19.52
2017-05-02T15:22:08.847Z,18.98
2017-05-02T15:24:46.237Z,17.34
2017-05-02T15:27:15.629Z,17.96
2017-05-02T15:29:44.775Z,16.94
2017-05-02T15:32:21.162Z,16.70
2017-05-02T15:34:50.521Z,18.88
2017-05-02T15:40:14.951Z,17.44
2017-05-02T15:42:44.760Z,16.80
2017-05-02T15:45:13.150Z,19.16
2017-05-02T15:47:41.554Z,16.60
2017-05-02T15:53:06.896Z,20.00
2017-05-02T15:55:46.672Z,17.00
2017-05-02T15:58:15.833Z,17.70
2017-05-02T16:00:46.769Z,18.30
2017-05-02T16:03:16.931Z,17.30
2017-05-02T16:05:47.486Z,17.04
2017-05-02T16:11:12.250Z,16.30
2017-05-02T16:13:40.621Z,20.96
2017-05-02T16:16:09.286Z,15.52
2017-05-02T16:18:47.603Z,17.94
2017-05-02T16:21:16.712Z,16.92
2017-05-02T16:23:45.157Z,17.18
2017-05-02T16:26:20.485Z,33.66
2017-05-02T16:28:49.731Z,34.04
2017-05-02T16:31:18.152Z,32.54
2017-05-02T16:33:47.433Z,27.08
2017-05-02T16:42:03.660Z,26.62
2017-05-02T16:44:45.788Z,27.10
2017-05-02T16:50:08.745Z,26.96
2017-05-02T16:52:37.127Z,26.02
2017-05-02T16:55:07.413Z,26.42
2017-05-02T16:57:35.837Z,23.64
2017-05-02T17:00:05.005Z,26.94
2017-05-02T17:02:34.212Z,23.46
2017-05-02T17:05:06.033Z,24.28
2017-05-02T17:10:45.965Z,22.74
2017-05-02T17:13:34.186Z,25.92
2017-05-02T17:18:56.596Z,22.50
2017-05-02T17:21:45.096Z,25.68
2017-05-02T17:27:07.632Z,21.02
2017-05-02T17:29:47.592Z,20.74
2017-05-02T17:32:30.108Z,25.06
2017-05-02T17:34:59.384Z,22.20
2017-05-02T17:37:27.855Z,23.10
2017-05-02T17:39:57.873Z,20.20
2017-05-02T17:42:46.053Z,19.24
2017-05-02T17:45:14.462Z,19.94
2017-05-02T17:47:43.643Z,19.46
2017-05-02T17:50:12.924Z,20.22
2017-05-02T17:52:41.409Z,19.04
2017-05-02T17:55:09.813Z,22.22
2017-05-02T17:57:46.771Z,20.18
2017-05-02T18:00:15.297Z,22.08
2017-05-02T18:02:44.429Z,18.60
2017-05-02T18:05:12.956Z,19.94
2017-05-02T18:07:42.269Z,18.40
2017-05-02T18:13:05.606Z,20.66
2017-05-02T18:15:37.873Z,20.52
2017-05-02T18:18:06.516Z,19.62
2017-05-02T18:20:35.630Z,18.84
2017-05-02T18:23:04.398Z,18.90
2017-05-02T18:25:34.401Z,17.88
2017-05-02T18:30:57.931Z,19.16
2017-05-02T18:33:29.312Z,17.38
2017-05-02T18:35:58.616Z,17.88
2017-05-02T18:41:22.293Z,18.76
2017-05-02T18:43:50.668Z,18.34
2017-05-02T18:46:19.042Z,18.18
2017-05-02T18:48:48.489Z,17.34
2017-05-02T18:51:17.854Z,16.84
2017-05-02T18:53:47.173Z,15.22
2017-05-02T18:56:15.638Z,17.30
2017-05-02T18:58:44.850Z,16.86
2017-05-02T19:01:13.977Z,17.60
2017-05-02T19:03:43.264Z,16.74
2017-05-02T19:09:06.313Z,16.84
2017-05-02T19:11:35.472Z,15.90
2017-05-02T19:14:04.691Z,17.36
2017-05-02T19:16:34.159Z,17.42
2017-05-02T19:19:02.867Z,15.84
2017-05-02T19:21:42.393Z,18.28
2017-05-02T19:24:11.505Z,19.08
2017-05-02T19:26:40.679Z,19.00
2017-05-02T19:29:16.152Z,17.00
2017-05-02T19:31:46.274Z,18.72
2017-05-02T19:37:08.644Z,16.80
2017-05-02T19:39:37.990Z,17.84
2017-05-02T19:42:09.354Z,18.42
2017-05-02T19:44:38.345Z,17.62
2017-05-02T19:47:09.774Z,18.32
2017-05-02T19:49:46.597Z,17.28
2017-05-02T19:52:15.316Z,18.14
2017-05-02T19:54:47.103Z,18.22
2017-05-02T19:57:16.416Z,19.10
2017-05-02T19:59:45.656Z,18.12
2017-05-02T20:02:14.221Z,17.06
2017-05-02T20:04:42.940Z,16.70
2017-05-02T20:07:13.043Z,16.90
2017-05-02T20:09:42.261Z,16.28
2017-05-02T20:12:11.761Z,16.52
2017-05-02T20:14:41.173Z,17.96
2017-05-02T20:23:05.808Z,15.74
2017-05-02T20:25:34.179Z,17.58
2017-05-02T20:28:02.548Z,17.12
2017-05-02T20:30:32.566Z,18.18
2017-05-02T20:33:04.685Z,21.20
2017-05-02T20:35:33.206Z,18.62
2017-05-02T20:38:02.349Z,17.62
2017-05-02T20:40:31.669Z,18.02
2017-05-02T20:43:00.082Z,18.22
2017-05-02T20:45:46.012Z,18.06
2017-05-02T20:51:08.791Z,17.86
2017-05-02T20:53:37.295Z,17.84
2017-05-02T20:56:06.467Z,18.78
2017-05-02T20:58:35.270Z,17.90
2017-05-02T21:01:04.538Z,16.96
2017-05-02T21:03:34.082Z,17.20
2017-05-02T21:06:02.838Z,18.50
2017-05-02T21:08:32.643Z,17.30
2017-05-02T21:13:54.713Z,19.00
2017-05-02T21:16:26.518Z,18.88
2017-05-02T21:18:56.523Z,17.60
2017-05-02T21:21:32.668Z,16.62
2017-05-02T21:24:01.847Z,16.62
2017-05-02T21:26:33.658Z,19.80
2017-05-02T21:29:02.339Z,17.52
2017-05-02T21:31:34.517Z,18.50
2017-05-02T21:34:05.899Z,18.50
2017-05-02T21:36:38.196Z,15.26
2017-05-02T21:44:55.916Z,17.68
2017-05-02T21:47:25.292Z,18.84
2017-05-02T21:50:05.317Z,19.78
2017-05-02T21:52:33.865Z,18.52
2017-05-02T21:55:09.324Z,17.88
2017-05-02T21:57:47.898Z,18.02
2017-05-02T22:00:23.360Z,18.32
2017-05-02T22:02:51.730Z,17.48
2017-05-02T22:05:20.120Z,17.40
2017-05-02T22:07:48.715Z,18.20
2017-05-02T22:10:17.101Z,17.58
2017-05-02T22:12:46.353Z,18.06
2017-05-02T22:15:15.786Z,17.62
2017-05-02T22:17:45.145Z,16.74
2017-05-02T22:20:14.265Z,18.28
2017-05-02T22:22:42.852Z,16.84
2017-05-02T22:28:05.089Z,17.42
2017-05-02T22:30:33.557Z,16.84
2017-05-02T22:33:05.612Z,16.42
2017-05-02T22:35:47.169Z,18.66
2017-05-02T22:38:16.569Z,18.06
2017-05-02T22:40:45.699Z,17.06
2017-05-02T22:46:10.032Z,18.64
2017-05-02T22:48:39.096Z,17.68
2017-05-02T22:51:08.372Z,16.94
2017-05-02T22:53:37.593Z,15.86
2017-05-02T22:56:06.148Z,16.20
2017-05-02T22:58:34.772Z,17.34
2017-05-02T23:01:03.480Z,17.74
2017-05-02T23:03:46.061Z,17.56
2017-05-02T23:06:14.652Z,16.98
2017-05-02T23:08:43.131Z,17.64
2017-05-02T23:11:14.275Z,18.20
2017-05-02T23:13:43.568Z,15.54
2017-05-02T23:16:12.109Z,16.82
2017-05-02T23:18:49.771Z,15.12
2017-05-02T23:21:18.949Z,29.04
2017-05-02T23:23:50.389Z,16.12
2017-05-02T23:26:20.421Z,18.26
2017-05-02T23:28:49.866Z,16.94
2017-05-02T23:34:12.629Z,15.96
2017-05-02T23:36:50.837Z,16.82
2017-05-02T23:42:14.570Z,17.06
2017-05-02T23:47:37.089Z,17.00
2017-05-02T23:50:06.260Z,17.24
2017-05-02T23:52:34.683Z,16.66
2017-05-02T23:55:04.105Z,17.58
2017-05-02T23:57:40.010Z,17.72
